Terminal Aerodrome Forecast
Issued by NWS Bismarck, ND

Home | Current Version | Previous Version | Graphics & Text | Print | Product List | Glossary On
Versions: 1 2 3 4 5 6 7 8 9 10 11 12 13 14 15 16 17 18 19 20 21 22 23 24 25 26 27 28 29 30
000
FTUS43 KBIS 012054 AAD
TAFBIS
TAF AMD
KBIS 012054Z 0121/0218 04004KT P6SM -SN OVC010
      TEMPO 0121/0123 2SM -SN BR OVC008
     FM012300 32005KT P6SM OVC010
     FM020400 00000KT P6SM OVC008
     FM020900 VRB03KT P6SM OVC004=

USA.gov is the U.S. government's official web portal to all federal, state and local government web resources and services.